createdAt,value
2022-11-05T00:00:33.981Z,0.00
2022-11-05T00:01:33.999Z,0.00
2022-11-05T00:02:33.952Z,0.00
2022-11-05T00:03:33.988Z,0.00
2022-11-05T00:04:33.950Z,0.00
2022-11-05T00:05:33.913Z,0.00
2022-11-05T00:06:33.910Z,0.00
2022-11-05T00:07:33.891Z,0.00
2022-11-05T00:08:33.881Z,0.00
2022-11-05T00:09:33.871Z,0.00
2022-11-05T00:10:33.881Z,0.00
2022-11-05T00:11:33.873Z,0.00
2022-11-05T00:12:33.848Z,0.00
2022-11-05T00:13:33.842Z,0.00
2022-11-05T00:14:33.831Z,0.00
2022-11-05T00:15:33.807Z,0.00
2022-11-05T00:16:33.792Z,0.00
2022-11-05T00:17:33.846Z,0.00
2022-11-05T00:18:33.781Z,0.00
2022-11-05T00:19:33.771Z,0.00
2022-11-05T00:20:33.803Z,0.00
2022-11-05T00:21:33.743Z,0.00
2022-11-05T00:22:33.751Z,0.00
2022-11-05T00:23:33.718Z,0.00
2022-11-05T00:24:33.710Z,0.00
2022-11-05T00:25:33.722Z,0.00
2022-11-05T00:26:33.693Z,0.00
2022-11-05T00:27:33.716Z,0.00
2022-11-05T00:28:33.674Z,0.00
2022-11-05T00:29:33.658Z,0.00
2022-11-05T00:30:33.649Z,0.00
2022-11-05T00:31:33.638Z,0.00
2022-11-05T00:32:33.628Z,0.00
2022-11-05T00:33:33.652Z,0.00
2022-11-05T00:34:33.605Z,0.00
2022-11-05T00:35:33.596Z,0.00
2022-11-05T00:36:33.589Z,0.00
2022-11-05T00:37:33.647Z,0.00
2022-11-05T00:38:33.568Z,0.00
2022-11-05T00:39:33.564Z,0.00
2022-11-05T00:40:33.563Z,0.00
2022-11-05T00:41:33.521Z,0.00
2022-11-05T00:42:33.524Z,0.00
2022-11-05T00:43:33.521Z,0.00
2022-11-05T00:44:33.519Z,0.00
2022-11-05T00:45:33.481Z,0.00
2022-11-05T00:46:33.478Z,0.00
2022-11-05T00:47:33.460Z,0.00
2022-11-05T00:48:33.494Z,0.00
2022-11-05T00:49:33.434Z,0.00
2022-11-05T00:50:33.445Z,0.00
2022-11-05T00:51:33.411Z,0.00
2022-11-05T00:52:33.410Z,0.00
2022-11-05T00:53:33.404Z,0.00
2022-11-05T00:54:33.402Z,0.00
2022-11-05T00:55:33.411Z,0.00
2022-11-05T00:56:33.408Z,0.00
2022-11-05T00:57:33.355Z,0.00
2022-11-05T00:58:33.361Z,0.00
2022-11-05T00:59:33.321Z,0.00
2022-11-05T01:00:33.348Z,0.00
2022-11-05T01:01:33.403Z,0.00
2022-11-05T01:02:33.469Z,0.00
2022-11-05T01:03:33.289Z,0.00
2022-11-05T01:04:33.285Z,0.00
2022-11-05T01:05:33.266Z,0.00
2022-11-05T01:06:33.249Z,0.00
2022-11-05T01:07:33.238Z,0.00
2022-11-05T01:08:33.252Z,0.00
2022-11-05T01:09:33.218Z,0.00
2022-11-05T01:10:33.237Z,0.00
2022-11-05T01:11:33.595Z,0.00
2022-11-05T01:12:33.200Z,0.00
2022-11-05T01:13:33.231Z,0.00
2022-11-05T01:14:33.196Z,0.00
2022-11-05T01:15:33.156Z,0.00
2022-11-05T01:16:33.163Z,0.00
2022-11-05T01:17:33.133Z,0.00
2022-11-05T01:18:33.141Z,0.00
2022-11-05T01:19:33.119Z,0.00
2022-11-05T01:20:33.113Z,0.00
2022-11-05T01:21:33.091Z,0.00
2022-11-05T01:22:33.099Z,0.00
2022-11-05T01:23:33.103Z,0.00
2022-11-05T01:24:33.089Z,0.00
2022-11-05T01:25:33.048Z,0.00
2022-11-05T01:26:33.050Z,0.00
2022-11-05T01:27:33.029Z,0.00
2022-11-05T01:28:33.132Z,0.00
2022-11-05T01:29:33.004Z,0.00
2022-11-05T01:30:32.998Z,0.00
2022-11-05T01:31:32.978Z,0.00
2022-11-05T01:32:32.991Z,0.00
2022-11-05T01:33:32.966Z,0.00
2022-11-05T01:34:32.961Z,0.00
2022-11-05T01:35:32.955Z,0.00
2022-11-05T01:36:32.973Z,0.00
2022-11-05T01:37:32.927Z,0.00
2022-11-05T01:38:32.964Z,0.00
2022-11-05T01:39:32.897Z,0.00
2022-11-05T01:40:32.891Z,0.00
2022-11-05T01:41:32.879Z,0.00
2022-11-05T01:42:32.865Z,0.00
2022-11-05T01:43:32.888Z,0.00
2022-11-05T01:44:32.847Z,0.00
2022-11-05T01:45:32.844Z,0.00
2022-11-05T01:46:32.828Z,0.00
2022-11-05T01:47:32.816Z,0.00
2022-11-05T01:48:32.822Z,0.00
2022-11-05T01:49:32.810Z,0.00
2022-11-05T01:50:32.790Z,0.00
2022-11-05T01:51:32.777Z,0.00
2022-11-05T01:52:32.882Z,0.00
2022-11-05T01:53:32.755Z,0.00
2022-11-05T01:54:32.785Z,0.00
2022-11-05T01:55:32.806Z,0.00
2022-11-05T01:56:32.724Z,0.00
2022-11-05T01:57:32.719Z,0.00
2022-11-05T01:58:32.735Z,0.00
2022-11-05T01:59:32.745Z,0.00
2022-11-05T02:00:32.706Z,0.00
2022-11-05T02:01:32.874Z,0.00
2022-11-05T02:02:32.776Z,0.00
2022-11-05T02:03:32.654Z,0.00
2022-11-05T02:04:32.635Z,0.00
2022-11-05T02:05:32.630Z,0.00
2022-11-05T02:06:32.612Z,0.00
2022-11-05T02:07:32.616Z,0.00
2022-11-05T02:08:32.650Z,0.00
2022-11-05T02:09:32.586Z,0.00
2022-11-05T02:10:32.574Z,0.00
2022-11-05T02:11:32.563Z,0.00
2022-11-05T02:12:32.543Z,0.00
2022-11-05T02:13:32.549Z,0.00
2022-11-05T02:14:32.541Z,0.00
2022-11-05T02:15:32.514Z,0.00
2022-11-05T02:16:32.504Z,0.00
2022-11-05T02:17:32.513Z,0.00
2022-11-05T02:18:32.503Z,0.00
2022-11-05T02:19:32.494Z,0.00
2022-11-05T02:20:32.476Z,0.00
2022-11-05T02:21:32.473Z,0.00
2022-11-05T02:22:32.441Z,0.00
2022-11-05T02:23:32.432Z,0.00
2022-11-05T02:24:32.432Z,0.00
2022-11-05T02:25:32.479Z,0.00
2022-11-05T02:26:32.403Z,0.00
2022-11-05T02:27:32.402Z,0.00
2022-11-05T02:28:32.414Z,0.00
2022-11-05T02:29:32.391Z,0.00
2022-11-05T02:30:32.375Z,0.00
2022-11-05T02:31:32.363Z,0.00
2022-11-05T02:32:32.362Z,0.00
2022-11-05T02:33:32.333Z,0.00
2022-11-05T02:34:32.322Z,0.00
2022-11-05T02:35:32.422Z,0.00
2022-11-05T02:36:32.296Z,0.00
2022-11-05T02:37:32.311Z,0.00
2022-11-05T02:38:32.282Z,0.00
2022-11-05T02:39:32.280Z,0.00
2022-11-05T02:40:32.260Z,0.00
2022-11-05T02:41:32.253Z,0.00
2022-11-05T02:42:32.237Z,0.00
2022-11-05T02:43:32.232Z,0.00
2022-11-05T02:44:32.220Z,0.00
2022-11-05T02:45:32.242Z,0.00
2022-11-05T02:46:32.230Z,0.00
2022-11-05T02:47:32.190Z,0.00
2022-11-05T02:48:32.219Z,0.00
2022-11-05T02:49:32.166Z,0.00
2022-11-05T02:50:32.194Z,0.00
2022-11-05T02:51:32.174Z,0.00
2022-11-05T02:52:32.128Z,0.00
2022-11-05T02:53:32.126Z,0.00
2022-11-05T02:54:32.122Z,0.00
2022-11-05T02:55:32.140Z,0.00
2022-11-05T02:56:32.089Z,0.00
2022-11-05T02:57:32.080Z,0.00
2022-11-05T02:58:32.070Z,0.00
2022-11-05T02:59:32.077Z,0.00
2022-11-05T03:00:32.047Z,0.00
2022-11-05T03:01:32.113Z,0.00
2022-11-05T03:02:32.256Z,0.00
2022-11-05T03:03:32.018Z,0.00
2022-11-05T03:04:32.020Z,0.00
2022-11-05T03:05:32.078Z,0.00
2022-11-05T03:06:32.018Z,0.00
2022-11-05T03:07:32.025Z,0.00
2022-11-05T03:08:31.982Z,0.00
2022-11-05T03:09:32.010Z,0.00
2022-11-05T03:10:31.950Z,0.00
2022-11-05T03:11:31.937Z,0.00
2022-11-05T03:12:31.922Z,0.00
2022-11-05T03:13:31.921Z,0.00
2022-11-05T03:14:31.920Z,0.00
2022-11-05T03:15:31.915Z,0.00
2022-11-05T03:16:31.881Z,0.00
2022-11-05T03:17:31.880Z,0.00
2022-11-05T03:18:31.881Z,0.00
2022-11-05T03:19:31.867Z,0.00
2022-11-05T03:20:31.876Z,0.00
2022-11-05T03:21:31.835Z,0.00
2022-11-05T03:22:31.847Z,0.00
2022-11-05T03:23:31.806Z,0.00
2022-11-05T03:24:31.817Z,0.00
2022-11-05T03:25:31.828Z,0.00
2022-11-05T03:26:31.827Z,0.00
2022-11-05T03:27:31.768Z,0.00
2022-11-05T03:28:31.763Z,0.00
2022-11-05T03:29:31.747Z,0.00
2022-11-05T03:30:31.774Z,0.00
2022-11-05T03:31:31.749Z,0.00
2022-11-05T03:32:31.727Z,0.00
2022-11-05T03:33:31.709Z,0.00
2022-11-05T03:34:31.685Z,0.00
2022-11-05T03:35:31.694Z,0.00
2022-11-05T03:36:31.676Z,0.00
2022-11-05T03:37:31.689Z,0.00
2022-11-05T03:38:31.697Z,0.00
2022-11-05T03:39:31.641Z,0.00
2022-11-05T03:40:31.638Z,0.00
2022-11-05T03:41:31.627Z,0.00
2022-11-05T03:42:31.687Z,0.00
2022-11-05T03:43:31.617Z,0.00
2022-11-05T03:44:31.594Z,0.00
2022-11-05T03:45:31.584Z,0.00
2022-11-05T03:46:31.605Z,0.00
2022-11-05T03:47:31.564Z,0.00
2022-11-05T03:48:31.599Z,0.00
2022-11-05T03:49:31.544Z,0.00
2022-11-05T03:50:32.971Z,0.00
2022-11-05T03:51:31.514Z,0.00
2022-11-05T03:52:31.500Z,0.00
2022-11-05T03:53:31.506Z,0.00
2022-11-05T03:54:31.488Z,0.00
2022-11-05T03:55:31.493Z,0.00
2022-11-05T03:56:31.528Z,0.00
2022-11-05T03:57:31.452Z,0.00
2022-11-05T03:58:31.474Z,0.00
2022-11-05T03:59:31.454Z,0.00
2022-11-05T04:00:31.435Z,0.00
2022-11-05T04:01:31.558Z,0.00
2022-11-05T04:02:31.476Z,0.00
2022-11-05T04:03:31.394Z,0.00
2022-11-05T04:04:31.385Z,0.00
2022-11-05T04:05:31.385Z,0.00
2022-11-05T04:06:31.356Z,0.00
2022-11-05T04:07:31.352Z,0.00
2022-11-05T04:08:31.340Z,0.00
2022-11-05T04:09:31.332Z,0.00
2022-11-05T04:10:31.338Z,0.00
2022-11-05T04:11:31.318Z,0.00
2022-11-05T04:12:31.358Z,0.00
2022-11-05T04:13:31.292Z,0.00
2022-11-05T04:14:31.273Z,0.00
2022-11-05T04:15:31.281Z,0.00
2022-11-05T04:16:31.262Z,0.00
2022-11-05T04:17:31.251Z,0.00
2022-11-05T04:18:31.233Z,0.00
2022-11-05T04:19:31.281Z,0.00
2022-11-05T04:20:31.215Z,0.00
2022-11-05T04:21:31.209Z,0.00
2022-11-05T04:22:31.182Z,0.00
2022-11-05T04:23:31.180Z,0.00
2022-11-05T04:24:31.174Z,0.00
2022-11-05T04:25:31.219Z,0.00
2022-11-05T04:26:31.153Z,0.00
2022-11-05T04:27:31.185Z,0.00
2022-11-05T04:28:31.136Z,0.00
2022-11-05T04:29:31.123Z,0.00
2022-11-05T04:30:31.102Z,0.00
2022-11-05T04:31:31.139Z,0.00
2022-11-05T04:32:31.092Z,0.00
2022-11-05T04:33:31.083Z,0.00
2022-11-05T04:34:31.072Z,0.00
2022-11-05T04:35:31.062Z,0.00
2022-11-05T04:36:31.050Z,0.00
2022-11-05T04:37:31.039Z,0.00
2022-11-05T04:38:31.029Z,0.00
2022-11-05T04:39:31.013Z,0.00
2022-11-05T04:40:31.013Z,0.00
2022-11-05T04:41:31.029Z,0.00
2022-11-05T04:42:30.999Z,0.00
2022-11-05T04:43:30.992Z,0.00
2022-11-05T04:44:30.976Z,0.00
2022-11-05T04:45:30.961Z,0.00
2022-11-05T04:46:30.981Z,0.00
2022-11-05T04:47:30.939Z,0.00
2022-11-05T04:48:30.913Z,0.00
2022-11-05T04:49:30.911Z,0.00
2022-11-05T04:50:30.888Z,0.00
2022-11-05T04:51:30.892Z,0.00
2022-11-05T04:52:30.879Z,0.00
2022-11-05T04:53:30.870Z,0.00
2022-11-05T04:54:30.868Z,0.00
2022-11-05T04:55:30.868Z,0.00
2022-11-05T04:56:30.869Z,0.00
2022-11-05T04:57:30.834Z,0.00
2022-11-05T04:58:30.841Z,0.00
2022-11-05T04:59:30.798Z,0.00
2022-11-05T05:00:30.811Z,0.00
2022-11-05T05:01:30.957Z,0.00
2022-11-05T05:02:30.775Z,0.00
2022-11-05T05:03:30.777Z,0.00
2022-11-05T05:04:30.752Z,0.00
2022-11-05T05:05:30.736Z,0.00
2022-11-05T05:06:30.736Z,0.00
2022-11-05T05:07:30.736Z,0.00
2022-11-05T05:08:30.720Z,0.00
2022-11-05T05:09:30.696Z,0.00
2022-11-05T05:10:30.716Z,0.00
2022-11-05T05:11:30.706Z,0.00
2022-11-05T05:12:30.665Z,0.00
2022-11-05T05:13:30.709Z,0.00
2022-11-05T05:14:30.670Z,0.00
2022-11-05T05:15:30.642Z,0.00
2022-11-05T05:16:30.633Z,0.00
2022-11-05T05:17:30.624Z,0.00
2022-11-05T05:18:30.618Z,0.00
2022-11-05T05:19:30.598Z,0.00
2022-11-05T05:20:30.606Z,0.00
2022-11-05T05:21:30.588Z,0.00
2022-11-05T05:22:30.562Z,0.00
2022-11-05T05:23:30.556Z,0.00
2022-11-05T05:24:30.556Z,0.00
2022-11-05T05:25:30.550Z,0.00
2022-11-05T05:26:30.563Z,0.00
2022-11-05T05:27:30.517Z,0.00
2022-11-05T05:28:30.503Z,0.00
2022-11-05T05:29:30.495Z,0.00
2022-11-05T05:30:30.488Z,0.00
2022-11-05T05:31:30.487Z,0.00
2022-11-05T05:32:30.457Z,0.00
2022-11-05T05:33:30.465Z,0.00
2022-11-05T05:34:30.445Z,0.00
2022-11-05T05:35:30.463Z,0.00
2022-11-05T05:36:30.423Z,0.00
2022-11-05T05:37:30.528Z,0.00
2022-11-05T05:38:30.405Z,0.00
2022-11-05T05:39:30.383Z,0.00
2022-11-05T05:40:30.377Z,0.00
2022-11-05T05:41:30.386Z,0.00
2022-11-05T05:42:30.359Z,0.00
2022-11-05T05:43:30.344Z,0.00
2022-11-05T05:44:30.421Z,0.00
2022-11-05T05:45:30.335Z,0.00
2022-11-05T05:46:30.417Z,0.00
2022-11-05T05:47:30.327Z,0.00
2022-11-05T05:48:30.292Z,0.00
2022-11-05T05:49:30.280Z,0.00
2022-11-05T05:50:30.266Z,0.00
2022-11-05T05:51:30.275Z,0.00
2022-11-05T05:52:30.253Z,0.00
2022-11-05T05:53:30.243Z,0.00
2022-11-05T05:54:33.427Z,0.00
2022-11-05T05:55:30.217Z,0.00
2022-11-05T05:56:30.158Z,1.00
2022-11-05T05:57:30.189Z,1.00
2022-11-05T05:58:30.136Z,1.00
2022-11-05T05:59:30.125Z,1.00
2022-11-05T06:00:30.107Z,2.00
2022-11-05T06:01:30.157Z,2.00
2022-11-05T06:02:30.252Z,2.00
2022-11-05T06:03:30.132Z,3.00
2022-11-05T06:04:30.072Z,3.00
2022-11-05T06:05:30.056Z,4.00
2022-11-05T06:06:30.061Z,7.00
2022-11-05T06:07:34.523Z,6.00
2022-11-05T06:08:31.023Z,8.00
2022-11-05T06:09:30.070Z,7.00
2022-11-05T06:10:30.048Z,11.00
2022-11-05T06:11:30.001Z,14.00
2022-11-05T06:12:29.983Z,16.00
2022-11-05T06:13:29.981Z,18.00
2022-11-05T06:14:29.962Z,23.00
2022-11-05T06:15:35.537Z,28.00
2022-11-05T06:16:30.972Z,33.00
2022-11-05T06:17:29.938Z,43.00
2022-11-05T06:18:29.949Z,48.00
2022-11-05T06:19:29.912Z,51.00
2022-11-05T06:20:29.915Z,56.00
2022-11-05T06:21:29.901Z,65.00
2022-11-05T06:22:29.880Z,73.00
2022-11-05T06:23:29.895Z,87.00
2022-11-05T06:24:29.864Z,96.00
2022-11-05T06:25:29.865Z,110.00
2022-11-05T06:26:29.850Z,129.00
2022-11-05T06:27:29.871Z,141.00
2022-11-05T06:28:29.820Z,157.00
2022-11-05T06:29:29.815Z,173.00
2022-11-05T06:30:29.796Z,194.00
2022-11-05T06:31:29.789Z,212.00
2022-11-05T06:32:29.782Z,236.00
2022-11-05T06:33:29.774Z,253.00
2022-11-05T06:34:29.766Z,275.00
2022-11-05T06:35:29.737Z,295.00
2022-11-05T06:36:29.754Z,314.00
2022-11-05T06:37:29.717Z,334.00
2022-11-05T06:38:29.719Z,353.00
2022-11-05T06:39:29.703Z,376.00
2022-11-05T06:40:29.686Z,398.00
2022-11-05T06:41:29.684Z,424.00
2022-11-05T06:42:29.666Z,452.00
2022-11-05T06:43:29.659Z,481.00
2022-11-05T06:44:29.658Z,508.00
2022-11-05T06:45:29.642Z,537.00
2022-11-05T06:46:29.644Z,565.00
2022-11-05T06:47:29.617Z,592.00
2022-11-05T06:48:29.607Z,618.00
2022-11-05T06:49:29.588Z,646.00
2022-11-05T06:50:29.575Z,675.00
2022-11-05T06:51:29.586Z,702.00
2022-11-05T06:52:29.594Z,731.00
2022-11-05T06:53:29.568Z,767.00
2022-11-05T06:54:29.566Z,798.00
2022-11-05T06:55:29.576Z,827.00
2022-11-05T06:56:29.526Z,854.00
2022-11-05T06:57:29.513Z,882.00
2022-11-05T06:58:29.513Z,912.00
2022-11-05T06:59:29.477Z,950.00
2022-11-05T07:00:29.564Z,981.00
2022-11-05T07:01:29.560Z,1009.00
2022-11-05T07:02:29.464Z,1036.00
2022-11-05T07:03:29.436Z,1064.00
2022-11-05T07:04:29.506Z,1094.00
2022-11-05T07:05:29.429Z,1132.00
2022-11-05T07:06:33.088Z,1173.00
2022-11-05T07:07:30.396Z,1194.00
2022-11-05T07:08:29.396Z,1223.00
2022-11-05T07:09:29.413Z,1260.00
2022-11-05T07:10:29.405Z,1282.00
2022-11-05T07:11:29.472Z,1312.00
2022-11-05T07:12:29.362Z,1353.00
2022-11-05T07:13:29.331Z,1392.00
2022-11-05T07:14:29.321Z,1427.00
2022-11-05T07:15:29.319Z,1448.00
2022-11-05T07:16:29.333Z,1470.00
2022-11-05T07:17:29.295Z,1500.00
2022-11-05T07:18:29.281Z,1514.00
2022-11-05T07:19:29.273Z,1516.00
2022-11-05T07:20:33.439Z,1548.00
2022-11-05T07:21:29.291Z,1588.00
2022-11-05T07:22:29.247Z,1630.00
2022-11-05T07:23:29.230Z,1652.00
2022-11-05T07:24:29.225Z,1661.00
2022-11-05T07:25:29.237Z,1670.00
2022-11-05T07:26:34.291Z,1695.00
2022-11-05T07:27:30.222Z,1715.00
2022-11-05T07:28:29.183Z,1739.00
2022-11-05T07:29:29.166Z,1763.00
2022-11-05T07:30:29.173Z,1783.00
2022-11-05T07:31:29.146Z,1813.00
2022-11-05T07:32:29.140Z,1836.00
2022-11-05T07:33:33.744Z,1858.00
2022-11-05T07:34:30.111Z,1875.00
2022-11-05T07:35:29.100Z,1884.00
2022-11-05T07:36:29.102Z,1902.00
2022-11-05T07:37:29.081Z,1923.00
2022-11-05T07:38:29.078Z,1944.00
2022-11-05T07:39:29.056Z,1970.00
2022-11-05T07:40:29.064Z,2007.00
2022-11-05T07:41:29.071Z,2049.00
2022-11-05T07:42:29.060Z,2078.00
2022-11-05T07:43:29.017Z,2097.00
2022-11-05T07:44:29.102Z,2111.00
2022-11-05T07:45:29.032Z,2106.00
2022-11-05T07:46:28.979Z,2116.00
2022-11-05T07:47:29.007Z,2141.00
2022-11-05T07:48:28.971Z,2166.00
2022-11-05T07:49:28.960Z,2185.00
2022-11-05T07:50:28.959Z,2193.00
2022-11-05T07:51:28.967Z,2208.00
2022-11-05T07:52:28.924Z,2220.00
2022-11-05T07:53:28.940Z,2227.00
2022-11-05T07:54:28.912Z,2229.00
2022-11-05T07:55:28.916Z,2246.00
2022-11-05T07:56:28.884Z,2276.00
2022-11-05T07:57:28.885Z,2281.00
2022-11-05T07:58:28.878Z,2285.00
2022-11-05T07:59:28.845Z,2311.00
2022-11-05T08:00:28.851Z,2330.00
2022-11-05T08:01:28.983Z,2340.00
2022-11-05T08:02:29.024Z,2373.00
2022-11-05T08:03:28.929Z,2386.00
2022-11-05T08:04:28.808Z,2401.00
2022-11-05T08:05:28.812Z,2431.00
2022-11-05T08:06:28.792Z,2481.00
2022-11-05T08:07:28.761Z,2529.00
2022-11-05T08:08:28.758Z,2539.00
2022-11-05T08:09:28.738Z,2537.00
2022-11-05T08:10:28.757Z,2537.00
2022-11-05T08:11:28.725Z,2542.00
2022-11-05T08:12:28.709Z,2561.00
2022-11-05T08:13:28.698Z,2578.00
2022-11-05T08:14:28.687Z,2585.00
2022-11-05T08:15:28.692Z,2592.00
2022-11-05T08:16:28.678Z,2602.00
2022-11-05T08:17:28.657Z,2630.00
2022-11-05T08:18:28.689Z,2663.00
2022-11-05T08:19:28.718Z,2665.00
2022-11-05T08:20:28.663Z,2659.00
2022-11-05T08:21:28.655Z,2705.00
2022-11-05T08:22:28.607Z,2723.00
2022-11-05T08:23:28.606Z,2733.00
2022-11-05T08:24:28.613Z,2750.00
2022-11-05T08:25:28.569Z,2770.00
2022-11-05T08:26:28.565Z,2782.00
2022-11-05T08:27:28.612Z,2792.00
2022-11-05T08:28:28.568Z,2820.00
2022-11-05T08:29:28.550Z,2845.00
2022-11-05T08:30:28.525Z,2852.00
2022-11-05T08:31:28.513Z,2869.00
2022-11-05T08:32:28.525Z,2913.00
2022-11-05T08:33:28.484Z,2896.00
2022-11-05T08:34:28.474Z,2886.00
2022-11-05T08:35:28.515Z,2911.00
2022-11-05T08:36:28.464Z,2927.00
2022-11-05T08:37:28.443Z,2977.00
2022-11-05T08:38:28.433Z,3011.00
2022-11-05T08:39:28.443Z,3008.00
2022-11-05T08:40:28.423Z,3009.00
2022-11-05T08:41:28.440Z,2975.00
2022-11-05T08:42:28.393Z,2964.00
2022-11-05T08:43:28.409Z,2971.00
2022-11-05T08:44:28.400Z,2995.00
2022-11-05T08:45:28.386Z,3014.00
2022-11-05T08:46:28.355Z,3045.00
2022-11-05T08:47:28.333Z,3084.00
2022-11-05T08:48:28.324Z,3070.00
2022-11-05T08:49:28.316Z,3060.00
2022-11-05T08:50:28.316Z,3056.00
2022-11-05T08:51:28.303Z,3096.00
2022-11-05T08:52:28.314Z,3134.00
2022-11-05T08:53:28.273Z,3116.00
2022-11-05T08:54:28.274Z,3135.00
2022-11-05T08:55:28.265Z,3140.00
2022-11-05T08:56:28.259Z,3157.00
2022-11-05T08:57:28.229Z,3203.00
2022-11-05T08:58:28.235Z,3165.00
2022-11-05T08:59:28.222Z,3198.00
2022-11-05T09:00:28.195Z,3265.00
2022-11-05T09:01:28.367Z,3273.00
2022-11-05T09:02:28.262Z,3234.00
2022-11-05T09:03:28.173Z,3297.00
2022-11-05T09:04:28.168Z,3275.00
2022-11-05T09:05:28.159Z,3209.00
2022-11-05T09:06:28.141Z,3254.00
2022-11-05T09:07:28.120Z,3276.00
2022-11-05T09:08:28.113Z,3256.00
2022-11-05T09:09:28.102Z,3279.00
2022-11-05T09:10:28.104Z,3281.00
2022-11-05T09:11:43.285Z,3297.00
2022-11-05T09:12:29.077Z,3295.00
2022-11-05T09:13:28.212Z,3338.00
2022-11-05T09:14:28.054Z,3355.00
2022-11-05T09:15:28.031Z,3301.00
2022-11-05T09:16:28.031Z,3324.00
2022-11-05T09:17:28.015Z,3315.00
2022-11-05T09:18:27.999Z,3303.00
2022-11-05T09:19:28.031Z,3362.00
2022-11-05T09:20:28.054Z,3473.00
2022-11-05T09:21:28.017Z,3658.00
2022-11-05T09:22:28.025Z,3922.00
2022-11-05T09:23:27.994Z,4093.00
2022-11-05T09:24:28.049Z,4092.00
2022-11-05T09:25:28.005Z,4187.00
2022-11-05T09:26:28.036Z,4242.00
2022-11-05T09:27:27.984Z,4234.00
2022-11-05T09:28:27.992Z,4331.00
2022-11-05T09:29:27.953Z,4578.00
2022-11-05T09:30:27.931Z,4660.00
2022-11-05T09:31:27.910Z,4859.00
2022-11-05T09:32:27.900Z,4968.00
2022-11-05T09:33:27.899Z,5115.00
2022-11-05T09:34:27.981Z,4687.00
2022-11-05T09:35:27.879Z,4255.00
2022-11-05T09:36:27.857Z,4005.00
2022-11-05T09:37:27.861Z,3783.00
2022-11-05T09:38:27.848Z,3622.00
2022-11-05T09:39:27.828Z,3601.00
2022-11-05T09:40:27.908Z,3562.00
2022-11-05T09:41:27.813Z,3578.00
2022-11-05T09:42:27.830Z,3591.00
2022-11-05T09:43:31.649Z,3597.00
2022-11-05T09:44:27.767Z,3677.00
2022-11-05T09:45:27.753Z,3819.00
2022-11-05T09:46:27.760Z,3933.00
2022-11-05T09:47:27.739Z,3978.00
2022-11-05T09:48:27.763Z,4029.00
2022-11-05T09:49:27.698Z,4062.00
2022-11-05T09:50:27.718Z,4051.00
2022-11-05T09:51:27.832Z,4052.00
2022-11-05T09:52:27.701Z,3998.00
2022-11-05T09:53:27.657Z,3936.00
2022-11-05T09:54:27.659Z,3967.00
2022-11-05T09:55:27.668Z,3994.00
2022-11-05T09:56:27.675Z,3941.00
2022-11-05T09:57:27.661Z,3885.00
2022-11-05T09:58:28.979Z,3844.00
2022-11-05T09:59:27.602Z,3800.00
2022-11-05T10:00:27.604Z,3773.00
2022-11-05T10:01:27.758Z,3764.00
2022-11-05T10:02:27.656Z,3745.00
2022-11-05T10:03:27.547Z,3700.00
2022-11-05T10:04:27.559Z,3717.00
2022-11-05T10:05:27.628Z,3731.00
2022-11-05T10:06:27.633Z,3777.00
2022-11-05T10:07:27.512Z,3815.00
2022-11-05T10:08:27.530Z,3822.00
2022-11-05T10:09:27.496Z,3768.00
2022-11-05T10:10:27.757Z,3781.00
2022-11-05T10:11:27.497Z,3784.00
2022-11-05T10:12:27.487Z,3800.00
2022-11-05T10:13:27.474Z,3785.00
2022-11-05T10:14:27.468Z,3800.00
2022-11-05T10:15:27.500Z,3837.00
2022-11-05T10:16:27.430Z,3851.00
2022-11-05T10:17:27.426Z,3864.00
2022-11-05T10:18:27.395Z,3829.00
2022-11-05T10:19:27.422Z,3796.00
2022-11-05T10:20:27.387Z,3778.00
2022-11-05T10:21:51.374Z,3786.00
2022-11-05T10:22:28.345Z,3823.00
2022-11-05T10:23:27.396Z,3830.00
2022-11-05T10:24:27.346Z,3831.00
2022-11-05T10:25:27.354Z,3828.00
2022-11-05T10:26:27.458Z,3818.00
2022-11-05T10:27:27.306Z,3840.00
2022-11-05T10:28:27.286Z,3872.00
2022-11-05T10:29:27.279Z,3920.00
2022-11-05T10:30:27.259Z,4038.00
2022-11-05T10:31:31.501Z,4168.00
2022-11-05T10:32:28.219Z,4322.00
2022-11-05T10:33:27.214Z,4505.00
2022-11-05T10:34:27.335Z,4556.00
2022-11-05T10:35:27.192Z,4494.00
2022-11-05T10:36:27.187Z,4333.00
2022-11-05T10:37:27.193Z,4291.00
2022-11-05T10:38:27.146Z,4321.00
2022-11-05T10:39:27.134Z,4628.00
2022-11-05T10:40:27.134Z,4924.00
2022-11-05T10:41:27.203Z,5124.00
2022-11-05T10:42:27.157Z,5442.00
2022-11-05T10:43:27.095Z,5584.00
2022-11-05T10:44:27.173Z,5069.00
2022-11-05T10:45:27.095Z,5149.00
2022-11-05T10:46:27.070Z,5267.00
2022-11-05T10:47:27.055Z,4303.00
2022-11-05T10:48:27.096Z,5679.00
2022-11-05T10:49:27.033Z,5295.00
2022-11-05T10:50:27.079Z,5081.00
2022-11-05T10:51:27.017Z,5171.00
2022-11-05T10:52:27.008Z,5208.00
2022-11-05T10:53:27.055Z,5436.00
2022-11-05T10:54:26.996Z,5378.00
2022-11-05T10:55:26.990Z,5259.00
2022-11-05T10:56:26.953Z,5062.00
2022-11-05T10:57:26.960Z,5878.00
2022-11-05T10:58:26.943Z,7246.00
2022-11-05T10:59:26.935Z,7663.00
2022-11-05T11:00:26.928Z,7152.00
2022-11-05T11:01:27.059Z,8289.00
2022-11-05T11:02:26.966Z,6843.00
2022-11-05T11:03:26.926Z,5028.00
2022-11-05T11:04:26.879Z,7043.00
2022-11-05T11:05:26.906Z,5822.00
2022-11-05T11:06:26.863Z,6325.00
2022-11-05T11:07:26.946Z,6587.00
2022-11-05T11:08:26.857Z,6810.00
2022-11-05T11:09:26.829Z,6624.00
2022-11-05T11:10:26.836Z,6420.00
2022-11-05T11:11:26.824Z,6111.00
2022-11-05T11:12:26.785Z,5662.00
2022-11-05T11:13:26.776Z,5633.00
2022-11-05T11:14:26.795Z,6044.00
2022-11-05T11:15:26.777Z,6545.00
2022-11-05T11:16:26.741Z,6188.00
2022-11-05T11:17:26.825Z,6295.00
2022-11-05T11:18:26.704Z,5589.00
2022-11-05T11:19:26.733Z,5458.00
2022-11-05T11:20:26.699Z,5726.00
2022-11-05T11:21:26.701Z,5810.00
2022-11-05T11:22:26.667Z,5956.00
2022-11-05T11:23:26.734Z,5733.00
2022-11-05T11:24:29.736Z,5273.00
2022-11-05T11:25:27.657Z,5666.00
2022-11-05T11:26:26.680Z,5159.00
2022-11-05T11:27:26.625Z,4908.00
2022-11-05T11:28:26.627Z,4909.00
2022-11-05T11:29:26.678Z,4871.00
2022-11-05T11:30:26.596Z,4814.00
2022-11-05T11:31:26.597Z,5191.00
2022-11-05T11:32:26.615Z,5187.00
2022-11-05T11:33:26.605Z,5451.00
2022-11-05T11:34:26.556Z,4721.00
2022-11-05T11:35:26.559Z,4394.00
2022-11-05T11:36:26.551Z,4466.00
2022-11-05T11:37:26.517Z,4631.00
2022-11-05T11:38:26.516Z,4750.00
2022-11-05T11:39:26.486Z,4695.00
2022-11-05T11:40:26.486Z,4714.00
2022-11-05T11:41:26.476Z,4515.00
2022-11-05T11:42:26.474Z,4604.00
2022-11-05T11:43:26.457Z,4638.00
2022-11-05T11:44:26.436Z,4668.00
2022-11-05T11:45:26.497Z,4759.00
2022-11-05T11:46:26.420Z,4825.00
2022-11-05T11:47:26.406Z,4888.00
2022-11-05T11:48:26.427Z,4910.00
2022-11-05T11:49:26.439Z,4915.00
2022-11-05T11:50:26.366Z,4954.00
2022-11-05T11:51:26.375Z,4970.00
2022-11-05T11:52:26.405Z,5155.00
2022-11-05T11:53:26.353Z,5171.00
2022-11-05T11:54:29.130Z,5250.00
2022-11-05T11:55:26.370Z,5387.00
2022-11-05T11:56:26.322Z,5657.00
2022-11-05T11:57:26.305Z,5659.00
2022-11-05T11:58:26.305Z,5625.00
2022-11-05T11:59:46.638Z,5525.00
2022-11-05T12:00:27.274Z,6060.00
2022-11-05T12:01:26.312Z,6057.00
2022-11-05T12:02:26.282Z,6399.00
2022-11-05T12:03:26.293Z,6059.00
2022-11-05T12:04:26.219Z,6076.00
2022-11-05T12:05:26.209Z,6074.00
2022-11-05T12:06:26.209Z,6037.00
2022-11-05T12:07:26.199Z,5996.00
2022-11-05T12:08:26.178Z,5917.00
2022-11-05T12:09:26.201Z,5918.00
2022-11-05T12:10:26.146Z,5888.00
2022-11-05T12:11:26.157Z,5802.00
2022-11-05T12:12:26.167Z,5721.00
2022-11-05T12:13:26.155Z,5673.00
2022-11-05T12:14:26.305Z,5530.00
2022-11-05T12:15:26.104Z,5309.00
2022-11-05T12:16:26.184Z,5130.00
2022-11-05T12:17:26.090Z,5074.00
2022-11-05T12:18:26.083Z,4923.00
2022-11-05T12:19:26.676Z,5503.00
2022-11-05T12:20:26.229Z,5232.00
2022-11-05T12:21:48.034Z,4889.00
2022-11-05T12:22:27.087Z,4298.00
2022-11-05T12:23:26.028Z,3942.00
2022-11-05T12:24:26.007Z,3843.00
2022-11-05T12:25:26.200Z,3511.00
2022-11-05T12:26:26.020Z,3403.00
2022-11-05T12:27:25.998Z,4018.00
2022-11-05T12:28:26.005Z,4446.00
2022-11-05T12:29:27.334Z,5242.00
2022-11-05T12:30:25.967Z,4882.00
2022-11-05T12:31:25.927Z,4104.00
2022-11-05T12:32:25.948Z,5277.00
2022-11-05T12:33:26.068Z,5812.00
2022-11-05T12:34:26.004Z,5324.00
2022-11-05T12:35:25.943Z,5157.00
2022-11-05T12:36:25.896Z,5333.00
2022-11-05T12:37:25.879Z,5099.00
2022-11-05T12:38:25.892Z,4855.00
2022-11-05T12:39:25.846Z,5664.00
2022-11-05T12:40:25.923Z,5537.00
2022-11-05T12:41:25.876Z,5845.00